Home > Products > Valid Products > TAF

000
FTUS45 KRIW 312300
TAFLND
TAF
KLND 312320Z 0100/0124 02008KT P6SM SCT030
     FM010400 34006KT P6SM VCSH OVC020
     FM011300 VRB04KT P6SM BKN020
     FM011700 VRB04KT P6SM SCT020
     FM012200 VRB04KT P6SM BKN250=



000
FTUS45 KRIW 312300
TAFRKS
TAF
KRKS 312320Z 0100/0124 27015G23KT P6SM FEW060
     FM010200 29008KT P6SM FEW070
     FM010700 33007KT P6SM SCT015
     FM011900 29011KT P6SM BKN250=



000
FTUS45 KRIW 312300
TAFCPR
TAF
KCPR 312320Z 0100/0124 01012G20KT P6SM SCT030
     FM010100 01011KT P6SM OVC025
     FM010330 02009KT 4SM -SN SCT008 OVC015
     FM010500 02008KT 1 1/2SM -SN OVC008
     FM011000 36006KT 6SM -SN SCT012 OVC020
     FM011500 VRB04KT P6SM BKN020
     FM011800 26008KT P6SM SCT020=



000
FTUS45 KRIW 312300
TAFCOD
TAF
KCOD 312320Z 0100/0124 01013G21KT 5SM -SN OVC013
     FM010400 36009KT P6SM OVC020
     FM010700 34006KT P6SM SCT015 OVC030
     FM011600 VRB05KT P6SM SCT035
     FM012100 18007KT P6SM BKN250
      AMD LTD TO CLD VIS AND WIND=



000
FTUS45 KRIW 312300
TAFBPI
TAF
KBPI 312320Z 0100/0124 34015KT P6SM SCT250
     FM010200 34008KT P6SM SCT250
     FM012000 VRB05KT P6SM SCT110 BKN200=



000
FTUS45 KRIW 312300
TAFJAC
TAF
KJAC 312320Z 0100/0124 VRB06KT P6SM SKC
     FM010400 36007KT P6SM SCT010
     FM011600 VRB04KT P6SM SCT250
     FM012200 17007KT P6SM SCT070 BKN110
      AMD LTD TO CLD VIS AND WIND=



000
FTUS45 KRIW 312300
TAFRIW
TAF
KRIW 312320Z 0100/0124 02010KT P6SM FEW250
     FM010100 02012G20KT P6SM SCT050
     FM010500 04009KT 5SM -SN OVC020
     FM010900 04007KT P6SM VCSH OVC020
     FM011700 VRB05KT P6SM SCT025
     FM012200 VRB05KT P6SM BKN250=



000
FTUS45 KRIW 312300
TAFWRL
TAF
KWRL 312320Z 0100/0124 36011KT P6SM BKN060
     FM010200 34011KT P6SM VCSH SCT020 BKN040
      TEMPO 0103/0106 3SM -SN OVC020
     FM010600 33006KT P6SM VCSH BKN025
     FM011100 VRB04KT P6SM SCT020 OVC035
     FM011600 VRB04KT P6SM SCT040
     FM012200 VRB04KT P6SM BKN250=



000
FTUS45 KRIW 311700
TAFJAC
TAF
KJAC 311732Z 3118/0118 33007KT P6SM SKC
     FM010400 36007KT P6SM FEW015
     FM011600 VRB04KT P6SM SCT250
      AMD LTD TO CLD VIS AND WIND=



000
FTUS45 KRIW 311700
TAFCOD
TAF
KCOD 311732Z 3118/0118 02008KT P6SM SCT100
     FM311900 01012G18KT P6SM SCT030
     FM312300 36010G15KT P6SM VCSH OVC015
     FM010700 34006KT P6SM SCT015 OVC030
     FM011600 VRB05KT P6SM SCT035
      AMD LTD TO CLD VIS AND WIND=



000
FTUS45 KRIW 311700
TAFRIW
TAF
KRIW 311732Z 3118/0118 VRB05KT P6SM VCFG SCT002
      TEMPO 3118/3120 3/4SM BR BKN002
     FM312100 02008KT P6SM SCT250
     FM312300 02012G18KT P6SM SCT030
     FM010400 04009KT 5SM -SN OVC020
     FM010900 04007KT P6SM VCSH OVC020
     FM011700 VRB05KT P6SM SCT025=



000
FTUS45 KRIW 311700
TAFCPR
TAF
KCPR 311732Z 3118/0118 24014KT P6SM SCT120
     FM312100 01012G20KT P6SM SCT030
     FM010000 01011KT P6SM OVC025
     FM010300 02009KT 4SM -SN SCT008 OVC015
     FM010500 02008KT 1 1/2SM -SN OVC008
     FM011000 36006KT 6SM -SN SCT012 OVC020
     FM011500 VRB04KT P6SM BKN020=



000
FTUS45 KRIW 311700
TAFRKS
TAF
KRKS 311732Z 3118/0118 26010KT P6SM FEW040
     FM311900 28016G26KT P6SM FEW060
     FM010200 29008KT P6SM SCT250
     FM010700 33007KT P6SM SCT015=



000
FTUS45 KRIW 311700
TAFWRL
TAF
KWRL 311732Z 3118/0118 VRB03KT 1/2SM FZFG BKN002
     FM312000 31006KT P6SM SCT120
     FM312100 33012KT P6SM OVC040
     FM010100 33009KT 5SM -SN OVC020
     FM010800 30006KT P6SM SCT020 OVC035
     FM011600 VRB04KT P6SM SCT040=



000
FTUS45 KRIW 311700
TAFLND
TAF
KLND 311732Z 3118/0118 VRB05KT P6SM FEW120 SCT250
     FM010000 03008KT P6SM SCT030
     FM010400 34006KT P6SM VCSH OVC020
     FM011300 VRB04KT P6SM BKN020
     FM011700 VRB04KT P6SM SCT020=



000
FTUS45 KRIW 311700
TAFBPI
TAF
KBPI 311732Z 3118/0118 33011KT P6SM SCT250
     FM312100 34013G23KT P6SM SKC
     FM010200 34008KT P6SM SCT250=



000
FTUS45 KRIW 311600 AAA
TAFRIW
TAF AMD
KRIW 311610Z 3116/0112 VRB05KT 4SM BR SCT002
      TEMPO 3116/3118 3/4SM BR BKN002
     FM311900 02008KT P6SM SCT250
     FM312300 02012G18KT P6SM SCT030
     FM010400 04009KT P6SM VCSH OVC020=



000
FTUS45 KRIW 311600 AAB
TAFWRL
TAF AMD
KWRL 311607Z 3116/0112 VRB03KT 1/4SM FZFG VV001
     FM311900 31006KT P6SM SCT250
     FM312100 33012KT P6SM OVC040
     FM010100 33009KT 6SM -SN OVC020
     FM010800 30006KT P6SM SCT020 OVC035=



000
FTUS45 KRIW 311300 AAA
TAFWRL
TAF AMD
KWRL 311356Z 3114/0112 VRB03KT 1/4SM FZFG VV001
     FM311600 VRB04KT 3SM BR SCT001 BKN120
     FM311800 31008KT P6SM SCT250
     FM312100 33012KT P6SM OVC040
     FM010100 33009KT 6SM -SN OVC020
     FM010800 30006KT P6SM SCT020 OVC035=



000
FTUS45 KRIW 311200 AAA
TAFRIW
TAF AMD
KRIW 311251Z 3113/0112 VRB05KT P6SM VCFG FEW002 BKN110
      TEMPO 3113/3114 3SM BR SCT002
     FM311400 VRB05KT P6SM SCT110 BKN250
     FM311700 02008KT P6SM SCT250
     FM312300 02012G18KT P6SM SCT030
     FM010400 04009KT P6SM VCSH OVC020=



000
FTUS45 KRIW 311100
TAFRIW
TAF
KRIW 311123Z 3112/0112 VRB05KT P6SM BKN110
     FM311400 VRB05KT P6SM SCT110 BKN250
     FM311700 02008KT P6SM SCT250
     FM312300 02012G18KT P6SM SCT030
     FM010400 04009KT P6SM VCSH OVC020=



000
FTUS45 KRIW 311100
TAFWRL
TAF
KWRL 311123Z 3112/0112 VRB03KT 1/4SM FZFG VV001
     FM311400 VRB04KT 3SM BR SCT001 BKN120
     FM311500 31008KT P6SM SCT250
     FM312100 33012KT P6SM OVC040
     FM010100 33009KT 6SM -SN OVC020
     FM010800 30006KT P6SM SCT020 OVC035=



000
FTUS45 KRIW 311100
TAFRKS
TAF
KRKS 311123Z 3112/0112 06011KT 5SM -SN SCT016 OVC035
      TEMPO 3112/3114 3SM -SN
     FM311500 28007KT P6SM FEW020 SCT060
     FM311900 28016G26KT P6SM FEW060
     FM010200 29008KT P6SM SCT250
     FM010700 33007KT P6SM SCT015=



000
FTUS45 KRIW 311100
TAFCOD
TAF
KCOD 311123Z 3112/0112 VRB05KT P6SM SCT200
     FM311500 02008KT P6SM SKC
     FM311900 01012G18KT P6SM SCT030
     FM312300 36010G15KT P6SM VCSH OVC015
     FM010700 34006KT P6SM SCT015 OVC030
      AMD LTD TO CLD VIS AND WIND=



000
FTUS45 KRIW 311100
TAFCPR
TAF
KCPR 311123Z 3112/0112 VRB05KT P6SM SCT090 BKN200
     FM311600 24010KT P6SM SKC
     FM312100 01012G20KT P6SM SCT030
     FM010000 01011KT P6SM OVC025
     FM010300 02009KT 4SM -SN SCT008 OVC015
     FM011000 36006KT 6SM -SN SCT012 OVC020=



000
FTUS45 KRIW 311100
TAFLND
TAF
KLND 311123Z 3112/0112 VRB05KT P6SM BKN120
     FM311400 VRB05KT P6SM SCT120 BKN200
     FM311700 VRB05KT P6SM SCT250
     FM010000 03008KT P6SM SCT030
     FM010400 34006KT P6SM VCSH OVC020=



000
FTUS45 KRIW 311100
TAFBPI
TAF
KBPI 311123Z 3112/0112 VRB04KT P6SM VCFG SCT005 BKN070
     FM311600 33011KT P6SM SKC
     FM312100 34013G23KT P6SM SKC
     FM010200 34008KT P6SM SCT250=



000
FTUS45 KRIW 311100
TAFJAC
TAF
KJAC 311123Z 3112/0112 01009KT P6SM SCT090 SCT200
     FM311600 33007KT P6SM SKC
     FM010400 36007KT P6SM FEW020
      AMD LTD TO CLD VIS AND WIND=



000
FTUS45 KRIW 311100 AAD
TAFWRL
TAF AMD
KWRL 311118Z 3111/0106 VRB03KT 1/4SM FZFG VV001
     FM311400 VRB04KT 3SM BR SCT002 BKN120
     FM311600 31008KT P6SM SKC
     FM312100 33012KT P6SM OVC040
     FM010100 33009KT 6SM -SN OVC020=



000
FTUS45 KRIW 310900 AAC
TAFWRL
TAF AMD
KWRL 310951Z 3110/0106 18004KT 3SM BR SCT002 BKN200
      TEMPO 3110/3112 1 1/2SM BR BKN002
     FM311200 VRB04KT P6SM VCFG FEW002 BKN150
     FM311500 31008KT P6SM SKC
     FM312100 33012KT P6SM OVC040
     FM010100 33009KT 6SM -SN OVC020=



000
FTUS45 KRIW 310900 AAA
TAFRKS
TAF AMD
KRKS 310940Z 3110/0106 06011KT 5SM -SN SCT016 OVC035
      TEMPO 3110/3112 3SM -SHSN BKN016
     FM311500 28007KT P6SM FEW020 SCT060
     FM311900 28016G26KT P6SM FEW060
     FM010200 29008KT P6SM SCT250=



000
FTUS45 KRIW 310800 CCA
TAFWRL
TAF COR
KWRL 310834Z 3109/0106 18004KT P6SM VCFG FEW001 SCT150 BKN200
      TEMPO 3109/3111 3SM BR SCT001
     FM311500 31008KT P6SM SKC
     FM312100 33012KT P6SM OVC040
     FM010100 33009KT 6SM -SN OVC020=



000
FTUS45 KRIW 310800 AAB
TAFWRL
TAF AMD
KWRL 310833Z 3109/0106 18004KT P6SM VCFG FEW001
      TEMPO 3109/3111 3SM BR SCT001
     FM311500 31008KT P6SM SKC
     FM312100 33012KT P6SM OVC040
     FM010100 33009KT 6SM -SN OVC020=



000
FTUS45 KRIW 310600 AAA
TAFWRL
TAF AMD
KWRL 310616Z 3106/0106 18004KT 2SM BR SCT001
      TEMPO 3107/3111 3/4SM BR BKN001
     FM311500 31008KT P6SM SKC
     FM312100 33012KT P6SM OVC040
     FM010100 33009KT 6SM -SN OVC020=



000
FTUS45 KRIW 310500
TAFBPI
TAF
KBPI 310539Z 3106/0106 VRB05KT P6SM SCT035 OVC060
     FM311100 VRB04KT P6SM VCFG SCT005 SCT070
     FM311600 33011KT P6SM SKC
     FM312100 34013G23KT P6SM SKC
     FM010200 34008KT P6SM SCT250=



000
FTUS45 KRIW 310500
TAFCPR
TAF
KCPR 310539Z 3106/0106 VRB05KT P6SM SCT090 BKN200
     FM311600 24010KT P6SM SKC
     FM312100 01012G20KT P6SM SCT030
     FM010000 01011KT P6SM OVC025
     FM010300 02009KT 4SM -SN SCT008 OVC015=



000
FTUS45 KRIW 310500
TAFCOD
TAF
KCOD 310539Z 3106/0106 VRB05KT P6SM SCT200
     FM311500 02008KT P6SM SKC
     FM311900 01012G18KT P6SM SCT030
     FM312300 36010G15KT P6SM VCSH OVC015
      AMD LTD TO CLD VIS AND WIND=



000
FTUS45 KRIW 310500
TAFRIW
TAF
KRIW 310539Z 3106/0106 VRB05KT P6SM SCT100 BKN200
     FM311400 VRB05KT P6SM SKC
     FM311700 02008KT P6SM SKC
     FM312300 02012G18KT P6SM SCT030
     FM010400 04009KT P6SM VCSH OVC020=



000
FTUS45 KRIW 310500
TAFRKS
TAF
KRKS 310539Z 3106/0106 06011KT P6SM VCSH SCT016 OVC050
      TEMPO 3106/3109 4SM -SHSN BKN016
     FM311500 28007KT P6SM FEW020 SCT060
     FM311900 28016G26KT P6SM FEW060
     FM010200 29008KT P6SM SCT250=



000
FTUS45 KRIW 310500
TAFLND
TAF
KLND 310539Z 3106/0106 VRB05KT P6SM SCT100 BKN200
     FM311400 VRB05KT P6SM SKC
     FM010000 03008KT P6SM SCT030
     FM010400 34006KT P6SM VCSH OVC020=



000
FTUS45 KRIW 310500
TAFJAC
TAF
KJAC 310539Z 3106/0106 01009KT P6SM SCT090 SCT200
     FM311600 33007KT P6SM SKC
     FM010400 36007KT P6SM FEW020
      AMD LTD TO CLD VIS AND WIND=



000
FTUS45 KRIW 310500
TAFWRL
TAF
KWRL 310539Z 3106/0106 VRB04KT P6SM FEW120 BKN200
     FM311000 18005KT P6SM VCFG SCT005
     FM311500 31008KT P6SM SKC
     FM312100 33012KT P6SM OVC040
     FM010100 33009KT 6SM -SN OVC020=



000
FTUS45 KRIW 302300
TAFWRL
TAF
KWRL 302337Z 3100/3124 VRB04KT P6SM FEW120 BKN200
     FM311000 18005KT P6SM VCFG SCT005
     FM311500 31008KT P6SM SKC
     FM312300 33012KT P6SM OVC030=



000
FTUS45 KRIW 302300
TAFRKS
TAF
KRKS 302337Z 3100/3124 06011KT P6SM VCSH SCT012 OVC020
      TEMPO 3103/3107 4SM -SHSN BKN012
     FM311500 29009KT P6SM SCT030 OVC080
     FM312100 29015G25KT P6SM SCT030=



000
FTUS45 KRIW 302300
TAFRIW
TAF
KRIW 302337Z 3100/3124 VRB05KT P6SM SCT100 BKN150
     FM311400 VRB05KT P6SM SKC=



000
FTUS45 KRIW 302300
TAFCPR
TAF
KCPR 302337Z 3100/3124 01008KT P6SM SCT060 BKN100
     FM310200 03007KT P6SM SCT015 BKN060
     FM311000 VRB05KT P6SM SCT010 BKN100
     FM311600 24010KT P6SM SKC
     FM312300 01012G20KT P6SM SCT030=



000
FTUS45 KRIW 302300
TAFCOD
TAF
KCOD 302337Z 3100/3124 VRB05KT P6SM BKN200
     FM310900 VRB05KT P6SM SKC
     FM312300 01012G18KT P6SM OVC030
      AMD LTD TO CLD VIS AND WIND=



000
FTUS45 KRIW 302300
TAFLND
TAF
KLND 302337Z 3100/3124 VRB05KT P6SM OVC100
     FM310900 VRB05KT P6SM FEW100 SCT200
     FM311400 VRB05KT P6SM SKC=



000
FTUS45 KRIW 302300
TAFJAC
TAF
KJAC 302337Z 3100/3124 VRB06KT P6SM SCT090 BKN150
     FM310400 01011KT P6SM SCT080 SCT200
     FM311200 01011KT P6SM SKC
     FM312200 01010KT P6SM SCT050
      AMD LTD TO CLD VIS AND WIND=



000
FTUS45 KRIW 302300
TAFBPI
TAF
KBPI 302337Z 3100/3124 02007KT P6SM SCT040 OVC070
     FM311100 VRB04KT P6SM VCFG SCT005 SCT070
     FM311600 33015KT P6SM SKC
     FM312100 33015G22KT P6SM SKC=



000
FTUS45 KRIW 302000 AAB
TAFRKS
TAF AMD
KRKS 302022Z 3020/3118 08005KT P6SM SCT010 OVC030
     FM310000 07010KT P6SM VCSH SCT030 OVC050
     FM310300 06014KT 5SM -SHSN OVC025
     FM311500 29009KT P6SM SCT030 OVC080=



000
FTUS45 KRIW 301800 AAA
TAFRKS
TAF AMD
KRKS 301814Z 3018/3118 08005KT P6SM SCT010 OVC015
     FM302200 07010KT P6SM VCSH SCT030 OVC050
     FM310300 06014KT 5SM -SHSN OVC025
     FM311500 29009KT P6SM SCT030 OVC080=



000
FTUS45 KRIW 301700
TAFWRL
TAF
KWRL 301721Z 3018/3118 VRB04KT P6SM FEW120 SCT200
     FM311000 18005KT P6SM VCFG SCT005
     FM311500 31008KT P6SM SKC=



000
FTUS45 KRIW 301700
TAFRKS
TAF
KRKS 301721Z 3018/3118 08005KT P6SM SCT060 OVC100
     FM302000 07010KT P6SM VCSH SCT030 OVC050
     FM310300 06014KT 5SM -SHSN OVC025
     FM311500 29009KT P6SM SCT030 OVC080=



000
FTUS45 KRIW 301700
TAFJAC
TAF
KJAC 301721Z 3018/3118 VRB06KT P6SM SCT110 BKN200
     FM310400 01011KT P6SM FEW090 SCT200
     FM311200 01011KT P6SM SKC
      AMD LTD TO CLD VIS AND WIND=



000
FTUS45 KRIW 301700
TAFRIW
TAF
KRIW 301721Z 3018/3118 VRB05KT P6SM SCT120 BKN180
     FM310000 VRB05KT P6SM SCT100 BKN150
     FM311400 VRB05KT P6SM SKC=



000
FTUS45 KRIW 301700
TAFLND
TAF
KLND 301721Z 3018/3118 VRB05KT P6SM SCT120 BKN180
     FM310000 VRB05KT P6SM BKN100
     FM310900 VRB05KT P6SM FEW100 SCT200
     FM311400 VRB05KT P6SM SKC=



000
FTUS45 KRIW 301700
TAFBPI
TAF
KBPI 301721Z 3018/3118 36005KT P6SM OVC120
     FM301900 VRB05KT P6SM SCT090 BKN150
     FM310100 VRB05KT P6SM SCT040 BKN070
     FM311100 VRB04KT P6SM VCFG SCT005 SCT070
     FM311600 33015KT P6SM SKC=



000
FTUS45 KRIW 301700
TAFCOD
TAF
KCOD 301721Z 3018/3118 03007KT P6SM BKN200
     FM310200 VRB05KT P6SM SCT200
     FM310900 VRB05KT P6SM SKC
      AMD LTD TO CLD VIS AND WIND=



000
FTUS45 KRIW 301700
TAFCPR
TAF
KCPR 301721Z 3018/3118 24009KT P6SM BKN200
     FM301900 36008KT P6SM FEW060 BKN200
     FM310200 03007KT P6SM SCT015 SCT060
     FM311000 VRB05KT P6SM SCT010 BKN100
     FM311600 24010KT P6SM SKC=



000
FTUS45 KRIW 301100
TAFBPI
TAF
KBPI 301136Z 3012/3112 36005KT P6SM OVC120
     FM301900 VRB05KT P6SM SCT090 BKN150
     FM310100 VRB05KT P6SM SCT040 BKN070
     FM311100 VRB04KT P6SM VCFG SCT005 SCT070=



000
FTUS45 KRIW 301100
TAFLND
TAF
KLND 301136Z 3012/3112 VRB05KT P6SM SCT120 BKN180
     FM310000 VRB05KT P6SM BKN100
     FM310900 VRB05KT P6SM FEW100 SCT200=



000
FTUS45 KRIW 301100
TAFRIW
TAF
KRIW 301136Z 3012/3112 VRB05KT P6SM SCT120 BKN180
     FM310000 VRB05KT P6SM SCT100 BKN150=



000
FTUS45 KRIW 301100
TAFCPR
TAF
KCPR 301136Z 3012/3112 24009KT P6SM BKN200
     FM301900 36008KT P6SM FEW060 BKN200
     FM310200 03007KT P6SM SCT015 SCT060
     FM311000 VRB05KT P6SM SCT010 BKN100=



000
FTUS45 KRIW 301100
TAFRKS
TAF
KRKS 301136Z 3012/3112 08005KT P6SM SCT060 OVC100
     FM302000 07010KT P6SM VCSH SCT030 OVC050
     FM310300 06014KT 5SM -SHSN OVC025=



000
FTUS45 KRIW 301100
TAFJAC
TAF
KJAC 301136Z 3012/3112 01005KT P6SM BKN200
     FM301800 VRB06KT P6SM SCT110 BKN200
     FM310400 01011KT P6SM FEW090 SCT200
      AMD LTD TO CLD VIS AND WIND=



000
FTUS45 KRIW 301100
TAFWRL
TAF
KWRL 301136Z 3012/3112 VRB05KT P6SM BCFG SCT002 BKN200
      TEMPO 3012/3016 1SM BR
     FM301800 VRB04KT P6SM FEW120 SCT200
     FM310700 18005KT P6SM VCFG SCT005=



000
FTUS45 KRIW 301100
TAFCOD
TAF
KCOD 301136Z 3012/3112 VRB05KT P6SM BKN200
     FM301800 03007KT P6SM BKN200
     FM310200 VRB05KT P6SM SCT200
      AMD LTD TO CLD VIS AND WIND=



000
FTUS45 KRIW 301000 AAA
TAFWRL
TAF AMD
KWRL 301046Z 3011/3106 VRB03KT 2SM BR VV002
      TEMPO 3011/3014 1/2SM FZFG
     FM301600 VRB04KT P6SM BCFG BKN005
     FM301800 VRB04KT P6SM FEW120 SCT200=



000
FTUS45 KRIW 300500
TAFLND
TAF
KLND 300539Z 3006/3106 VRB06KT P6SM BKN200
     FM301700 34006KT P6SM SCT060 BKN200=



000
FTUS45 KRIW 300500
TAFCPR
TAF
KCPR 300539Z 3006/3106 24009KT P6SM BKN200
     FM301900 36008KT P6SM BKN060
     FM310200 03007KT P6SM SCT015 SCT060=



000
FTUS45 KRIW 300500
TAFJAC
TAF
KJAC 300539Z 3006/3106 01005KT P6SM SCT003 BKN200
     FM301800 VRB06KT P6SM SCT110 BKN200
     FM310400 01011KT P6SM FEW090 SCT200
      AMD LTD TO CLD VIS AND WIND=



000
FTUS45 KRIW 300500
TAFWRL
TAF
KWRL 300539Z 3006/3106 18004KT P6SM VCFG SCT003 BKN200
     FM301800 VRB04KT P6SM FEW120 SCT200=



000
FTUS45 KRIW 300500
TAFCOD
TAF
KCOD 300539Z 3006/3106 21006KT P6SM SCT200
     FM301800 03007KT P6SM FEW060 SCT200
     FM310200 VRB05KT P6SM SKC
      AMD LTD TO CLD VIS AND WIND=



000
FTUS45 KRIW 300500
TAFRKS
TAF
KRKS 300539Z 3006/3106 07006KT P6SM SCT110 OVC200
     FM300900 08005KT P6SM VCSH BKN070
     FM302000 07010KT P6SM VCSH SCT030 OVC050
     FM310300 06014KT 5SM -SHSN OVC025=



000
FTUS45 KRIW 300500
TAFBPI
TAF
KBPI 300539Z 3006/3106 VRB04KT P6SM SCT110 OVC200
     FM301000 36005KT P6SM VCFG BKN090
     FM301700 VRB05KT P6SM SCT090 BKN200
     FM310100 VRB05KT P6SM SCT040 BKN070=



000
FTUS45 KRIW 300500
TAFRIW
TAF
KRIW 300539Z 3006/3106 VRB05KT P6SM VCFG FEW003 BKN200
     FM301700 VRB04KT P6SM SCT120 BKN200
     FM302100 04007KT P6SM SCT060 BKN200=



000
FTUS45 KRIW 292300
TAFRKS
TAF
KRKS 292337Z 3000/3024 07006KT P6SM SCT110 BKN200
     FM300900 18005KT P6SM VCSH BKN070
     FM302000 06007KT P6SM VCSH SCT030 OVC050=



000
FTUS45 KRIW 292300
TAFJAC
TAF
KJAC 292337Z 3000/3024 VRB04KT P6SM FEW090 BKN200
     FM300300 01005KT P6SM FEW090 SCT200
     FM301000 01005KT P6SM VCFG SCT003
     FM301700 35004KT P6SM OVC050
      AMD LTD TO CLD VIS AND WIND=



000
FTUS45 KRIW 292300
TAFWRL
TAF
KWRL 292337Z 3000/3024 VRB04KT P6SM SKC
     FM300500 16005KT P6SM VCFG SCT003 SCT200
     FM301300 VRB05KT 1SM BR BKN003
     FM301600 VRB04KT P6SM VCFG SCT020 SCT200=



000
FTUS45 KRIW 292300
TAFRIW
TAF
KRIW 292337Z 3000/3024 08006KT P6SM BKN200
     FM300500 VRB04KT P6SM VCFG FEW003 SCT200
     FM301700 VRB04KT P6SM SCT090 BKN200=



000
FTUS45 KRIW 292300
TAFLND
TAF
KLND 292337Z 3000/3024 VRB06KT P6SM BKN200=



000
FTUS45 KRIW 292300
TAFBPI
TAF
KBPI 292337Z 3000/3024 VRB05KT P6SM BKN200
     FM300200 35006KT P6SM SCT110 BKN200
     FM301000 VRB05KT P6SM VCFG OVC008
     FM301600 VRB06KT P6SM OVC150=



000
FTUS45 KRIW 292300
TAFCOD
TAF
KCOD 292337Z 3000/3024 22009KT P6SM SKC
     FM300300 21006KT P6SM SKC
     FM301400 33005KT P6SM FEW200
     FM301900 03007KT P6SM FEW060 SCT200
      AMD LTD TO CLD VIS AND WIND=



000
FTUS45 KRIW 292300
TAFCPR
TAF
KCPR 292337Z 3000/3024 21011KT P6SM BKN200
     FM301900 36008KT P6SM BKN060=



000
FTUS45 KRIW 292000 AAA
TAFBPI
TAF AMD
KBPI 292003Z 2920/3018 16005KT P6SM FEW050 SCT150
     FM300200 35006KT P6SM SCT110 BKN200
     FM300900 VRB05KT P6SM VCFG SCT004
     FM301500 VRB06KT P6SM OVC009=



000
FTUS45 KRIW 291900 AAA
TAFRKS
TAF AMD
KRKS 291942Z 2920/3018 08007KT P6SM OVC008
     FM292100 08007KT P6SM FEW030 SCT200
     FM300900 18005KT P6SM VCSH BKN070
     FM301200 22005KT P6SM VCSH OVC050=



000
FTUS45 KRIW 291700
TAFRIW
TAF
KRIW 291725Z 2918/3018 VRB05KT P6SM SCT060
     FM291900 08006KT P6SM SKC
     FM300300 VRB04KT P6SM VCFG FEW003 SCT200
     FM301500 VRB04KT P6SM BKN200=



000
FTUS45 KRIW 291700
TAFCOD
TAF
KCOD 291725Z 2918/3018 22009KT P6SM SKC
     FM300300 21006KT P6SM SKC
     FM301400 33005KT P6SM FEW200
      AMD LTD TO CLD VIS AND WIND=



000
FTUS45 KRIW 291700
TAFLND
TAF
KLND 291725Z 2918/3018 12006KT P6SM SKC
     FM300200 25007KT P6SM BKN200=



000
FTUS45 KRIW 291700
TAFCPR
TAF
KCPR 291725Z 2918/3018 24006KT P6SM FEW040
     FM292100 21010G15KT P6SM SCT250
     FM301400 23010KT P6SM BKN250=



000
FTUS45 KRIW 291700
TAFRKS
TAF
KRKS 291725Z 2918/3018 08007KT 1/4SM FG VV001
     FM291900 08007KT P6SM FEW030 BKN200
     FM300900 18005KT P6SM VCSH BKN070
     FM301200 22005KT P6SM VCSH OVC050=



000
FTUS45 KRIW 291700
TAFJAC
TAF
KJAC 291725Z 2918/3018 36006KT P6SM OVC015
     FM292000 VRB05KT P6SM SCT025 SCT200
     FM292200 20006KT P6SM SKC
     FM300300 01005KT P6SM FEW090 SCT200
      AMD LTD TO CLD VIS AND WIND=



000
FTUS45 KRIW 291700
TAFWRL
TAF
KWRL 291725Z 2918/3018 VRB04KT P6SM VCFG SKC
     FM300500 16005KT P6SM VCFG FEW003 SCT200
     FM301200 VRB05KT P6SM VCFG SCT003 SCT200=



000
FTUS45 KRIW 291700
TAFBPI
TAF
KBPI 291725Z 2918/3018 VRB04KT P6SM FEW009
      TEMPO 2918/2919 OVC009
     FM292000 16005KT P6SM BKN020
     FM300200 35006KT P6SM SCT110 BKN200
     FM300900 VRB05KT P6SM VCFG SCT004
     FM301500 VRB06KT P6SM OVC009=



000
FTUS45 KRIW 291600 AAA
TAFBPI
TAF AMD
KBPI 291625Z 2916/3012 VRB04KT P6SM OVC009
      TEMPO 2916/2919 FEW020
     FM300200 35006KT P6SM SCT110 BKN200=



000
FTUS45 KRIW 291600 AAB
TAFRKS
TAF AMD
KRKS 291618Z 2916/3012 06007KT 1/4SM FG VV001
     FM291800 08007KT P6SM FEW030 BKN200
     FM300900 18005KT P6SM VCSH BKN070=



000
FTUS45 KRIW 291600 AAA
TAFRKS
TAF AMD
KRKS 291602Z 2916/3012 06007KT P6SM OVC008
     FM291800 08007KT P6SM FEW030 BKN200
     FM300900 18005KT P6SM VCSH BKN070=



000
FTUS45 KRIW 291100
TAFCOD
TAF
KCOD 291139Z 2912/3012 VRB05KT P6SM FEW040
     FM291600 12007KT P6SM SKC
     FM300300 21006KT P6SM SKC
      AMD LTD TO CLD VIS AND WIND=



000
FTUS45 KRIW 291100
TAFRIW
TAF
KRIW 291139Z 2912/3012 VRB05KT P6SM SCT060
     FM291900 08006KT P6SM SKC
     FM300300 VRB04KT P6SM VCFG FEW003 SCT200=



000
FTUS45 KRIW 291100
TAFCPR
TAF
KCPR 291139Z 2912/3012 VRB05KT P6SM BKN040
     FM291600 24006KT P6SM FEW040
     FM292100 21010G15KT P6SM SCT250=



000
FTUS45 KRIW 291100
TAFJAC
TAF
KJAC 291139Z 2912/3012 36006KT P6SM SCT012 OVC020
     FM291800 VRB05KT P6SM SCT025 SCT200
      TEMPO 2918/2920 FEW015 BKN030
     FM292100 20006KT P6SM SKC
     FM300300 01005KT P6SM FEW090 SCT200
      AMD LTD TO CLD VIS AND WIND=



000
FTUS45 KRIW 291100
TAFBPI
TAF
KBPI 291139Z 2912/3012 VRB04KT P6SM FEW020
      TEMPO 2915/2919 BKN020
     FM300200 35006KT P6SM SCT110 BKN200=



000
FTUS45 KRIW 291100
TAFLND
TAF
KLND 291139Z 2912/3012 VRB04KT P6SM SCT060
     FM291900 12006KT P6SM SKC
     FM300200 25007KT P6SM BKN200=



000
FTUS45 KRIW 291100
TAFRKS
TAF
KRKS 291139Z 2912/3012 06007KT P6SM BKN015
     FM291600 08007KT P6SM FEW030 BKN200
     FM300900 18005KT P6SM VCSH BKN070=



000
FTUS45 KRIW 291100
TAFWRL
TAF
KWRL 291139Z 2912/3012 VRB04KT P6SM VCFG SCT003 SCT070
     FM291900 VRB05KT P6SM FEW015
     FM300500 16005KT P6SM VCFG FEW003 SCT200=



000
FTUS45 KRIW 291000 AAA
TAFRKS
TAF AMD
KRKS 291032Z 2911/3006 06007KT P6SM VCFG SCT008 BKN015
     FM291900 08007KT P6SM SCT090 BKN200=



000
FTUS45 KRIW 290500
TAFCOD
TAF
KCOD 290532Z 2906/3006 32006KT P6SM BKN050
     FM291100 19005KT P6SM SCT050
     FM291600 12007KT P6SM SKC
     FM300300 21006KT P6SM SKC
      AMD LTD TO CLD VIS AND WIND=



000
FTUS45 KRIW 290500
TAFRKS
TAF
KRKS 290532Z 2906/3006 VRB06KT P6SM SCT030 BKN050
     FM290900 06007KT P6SM VCFG FEW008 SCT030
     FM291900 08007KT P6SM SCT090 BKN200=



000
FTUS45 KRIW 290500
TAFCPR
TAF
KCPR 290532Z 2906/3006 36006KT P6SM VCSH SCT030 OVC050
     FM290900 28006KT P6SM VCFG FEW005 SCT050
     FM291700 22008KT P6SM FEW015
     FM292100 21012G18KT P6SM SCT200=



000
FTUS45 KRIW 290500
TAFJAC
TAF
KJAC 290532Z 2906/3006 36006KT P6SM VCFG SCT004 SCT050
     FM291800 18005KT P6SM FEW015 SCT200
     FM300300 01005KT P6SM FEW090 SCT200
      AMD LTD TO CLD VIS AND WIND=



000
FTUS45 KRIW 290500
TAFLND
TAF
KLND 290532Z 2906/3006 VRB05KT P6SM VCSH BKN030
     FM291000 VRB04KT P6SM VCFG SCT005 SCT030
     FM291800 12006KT P6SM FEW015 SCT200
     FM300200 25007KT P6SM BKN200=



000
FTUS45 KRIW 290500
TAFBPI
TAF
KBPI 290532Z 2906/3006 35008KT P6SM FEW050
     FM290800 VRB04KT P6SM VCFG SCT003
     FM291900 VRB05KT P6SM FEW015
     FM300200 35006KT P6SM SCT110 BKN200=



000
FTUS45 KRIW 290500
TAFRIW
TAF
KRIW 290532Z 2906/3006 07005KT P6SM VCSH BKN050
     FM290900 VRB05KT P6SM VCFG SCT003 SCT050
     FM291900 08006KT P6SM FEW015 SCT200
     FM300300 VRB04KT P6SM VCFG SCT003 SCT200=



000
FTUS45 KRIW 290500
TAFWRL
TAF
KWRL 290532Z 2906/3006 VRB04KT P6SM BKN070
     FM290800 VRB04KT P6SM VCFG SCT003 SCT070
     FM291900 VRB05KT P6SM FEW015
     FM300500 16005KT P6SM VCFG FEW003 SCT200=



    US Dept of Commerce
    National Oceanic and Atmospheric Administration
    National Weather Service
    1325 East West Highway
    Silver Spring, MD 20910
    Page Author: NWS Internet Services Team
Disclaimer
Information Quality
Credits
Glossary
Privacy Policy
Freedom of Information Act (FOIA)
About Us
Career Opportunities